Time;durP1;ratioP1;P1;durP2;ratioP2;P2;SDS_P1;SDS_P2;PMS_P1;PMS_P2;Temp;Humidity;BMP_temperature;BMP_pressure;BME280_temperature;BME280_humidity;BME280_pressure;Samples;Min_cycle;Max_cycle;Signal;HPM_P1;HPM_P2
2022/04/15 00:00:36;;;;;;;4.97;2.80;;;;;;;14.20;71.76;97214.28;5034636;28;20175;-67
2022/04/15 00:03:02;;;;;;;3.07;2.27;;;;;;;14.18;71.99;97216.34;5034008;28;20226;-68
2022/04/15 00:05:37;;;;;;;3.30;2.70;;;;;;;14.15;71.86;97222.13;5034119;28;20214;-67
2022/04/15 00:08:04;;;;;;;3.23;2.60;;;;;;;14.23;71.86;97221.69;5034297;28;20617;-67
2022/04/15 00:10:30;;;;;;;4.03;2.43;;;;;;;14.33;71.49;97208.69;5033656;28;20186;-68
2022/04/15 00:12:56;;;;;;;2.73;2.53;;;;;;;14.42;71.46;97214.41;5034050;28;20499;-68
2022/04/15 00:15:22;;;;;;;3.30;2.53;;;;;;;14.37;71.53;97214.31;5015793;28;20190;-68
2022/04/15 00:17:47;;;;;;;2.40;2.20;;;;;;;14.29;71.78;97212.03;5015385;28;20182;-69
2022/04/15 00:20:14;;;;;;;4.27;2.30;;;;;;;14.26;72.08;97215.16;5033061;28;20522;-68
2022/04/15 00:22:40;;;;;;;3.23;2.80;;;;;;;14.27;72.02;97225.44;5033731;28;20202;-68
2022/04/15 00:25:07;;;;;;;3.27;2.40;;;;;;;14.33;72.12;97229.78;5033805;28;20205;-68
2022/04/15 00:27:33;;;;;;;3.03;2.30;;;;;;;14.24;72.65;97227.78;5033743;28;20182;-68
2022/04/15 00:29:58;;;;;;;2.43;2.23;;;;;;;14.26;72.67;97233.63;5033611;28;20185;-68
2022/04/15 00:32:23;;;;;;;3.67;2.37;;;;;;;14.28;72.43;97231.53;5033395;28;20237;-68
2022/04/15 00:34:49;;;;;;;2.57;2.37;;;;;;;14.36;72.05;97239.06;5033324;28;20924;-68
2022/04/15 00:37:14;;;;;;;2.87;2.27;;;;;;;14.36;72.16;97233.78;5033010;28;20190;-68
2022/04/15 00:39:45;;;;;;;2.63;2.43;;;;;;;14.47;71.47;97231.09;5033457;28;20187;-68
2022/04/15 00:42:11;;;;;;;2.60;2.43;;;;;;;14.49;71.13;97230.84;5033767;28;20232;-67
2022/04/15 00:44:36;;;;;;;4.40;2.80;;;;;;;14.44;71.76;97225.50;5033345;28;20182;-68
2022/04/15 00:47:07;;;;;;;3.20;2.90;;;;;;;14.49;71.43;97225.56;5033205;28;20216;-68
2022/04/15 00:49:33;;;;;;;3.20;2.70;;;;;;;14.38;71.87;97221.16;5033343;28;20196;-67
2022/04/15 00:51:58;;;;;;;3.43;2.87;;;;;;;14.37;71.75;97233.59;5033368;28;20191;-67
2022/04/15 00:54:29;;;;;;;4.73;2.60;;;;;;;14.43;71.40;97224.69;5033506;28;20187;-67
2022/04/15 00:56:57;;;;;;;4.03;2.33;;;;;;;14.40;71.72;97230.47;5032858;28;20178;-68
2022/04/15 00:59:24;;;;;;;4.23;2.53;;;;;;;14.28;72.23;97234.16;5033207;28;20205;-68
2022/04/15 01:01:51;;;;;;;2.57;2.37;;;;;;;14.31;72.24;97233.72;5032784;28;20658;-67
2022/04/15 01:04:18;;;;;;;3.47;2.70;;;;;;;14.18;73.06;97237.44;5032877;28;20214;-68
2022/04/15 01:06:49;;;;;;;2.63;2.53;;;;;;;14.28;72.82;97236.81;5032979;28;20194;-68
2022/04/15 01:09:17;;;;;;;4.13;2.73;;;;;;;14.51;71.86;97236.69;5033212;28;20167;-67
2022/04/15 01:11:43;;;;;;;4.77;2.70;;;;;;;14.51;71.92;97236.69;5033067;28;20186;-68
2022/04/15 01:14:10;;;;;;;4.07;2.40;;;;;;;14.36;72.64;97236.44;5032845;28;20555;-68
2022/04/15 01:16:36;;;;;;;3.17;2.70;;;;;;;14.57;72.06;97233.09;5014822;28;20199;-67
2022/04/15 01:19:01;;;;;;;3.17;2.83;;;;;;;14.70;71.53;97239.88;5014830;28;20187;-68
2022/04/15 01:21:32;;;;;;;6.43;2.87;;;;;;;14.47;72.66;97230.31;5032815;28;20183;-67
2022/04/15 01:23:58;;;;;;;3.27;2.40;;;;;;;14.39;72.85;97228.84;5032774;28;20203;-67
2022/04/15 01:26:23;;;;;;;2.70;2.50;;;;;;;14.27;73.64;97227.28;5032542;28;20182;-67
2022/04/15 01:28:49;;;;;;;2.93;2.73;;;;;;;14.28;73.86;97226.25;5032646;28;20554;-67
2022/04/15 01:31:14;;;;;;;3.00;2.70;;;;;;;14.36;73.77;97233.78;5032438;28;20186;-68
2022/04/15 01:33:40;;;;;;;3.40;3.10;;;;;;;14.49;72.93;97229.00;5032296;28;20203;-67
2022/04/15 01:36:05;;;;;;;9.13;3.03;;;;;;;14.53;72.84;97230.16;5032086;28;20711;-67
2022/04/15 01:38:31;;;;;;;3.40;2.83;;;;;;;14.43;73.02;97229.97;5032116;28;20182;-68
2022/04/15 01:40:56;;;;;;;3.87;2.93;;;;;;;14.31;73.60;97234.50;5032291;28;20572;-67
2022/04/15 01:43:22;;;;;;;3.40;3.10;;;;;;;14.37;73.66;97230.94;5032559;28;20732;-68
2022/04/15 01:45:47;;;;;;;3.33;2.87;;;;;;;14.26;73.84;97231.78;5032744;28;20561;-67
2022/04/15 01:48:13;;;;;;;5.80;2.50;;;;;;;14.28;73.82;97234.16;5032562;28;20192;-67
2022/04/15 01:50:38;;;;;;;4.50;2.77;;;;;;;14.30;73.63;97243.44;5032547;28;20193;-67
2022/04/15 01:53:04;;;;;;;4.73;3.47;;;;;;;14.21;74.04;97236.94;5032362;28;20597;-68
2022/04/15 01:55:29;;;;;;;5.10;3.10;;;;;;;14.19;74.29;97243.50;5014645;28;20590;-68
2022/04/15 01:57:55;;;;;;;6.13;3.57;;;;;;;14.11;74.50;97239.41;5032028;28;20191;-67
2022/04/15 02:00:21;;;;;;;3.63;3.33;;;;;;;14.21;74.57;97250.13;5031936;28;20634;-68
2022/04/15 02:02:47;;;;;;;4.53;3.17;;;;;;;14.08;74.94;97243.34;5010942;28;20246;-68
2022/04/15 02:05:12;;;;;;;5.40;3.67;;;;;;;14.19;74.24;97246.97;5012641;28;20187;-68
2022/04/15 02:07:38;;;;;;;3.53;3.23;;;;;;;14.19;74.41;97238.25;5012833;28;20261;-68
2022/04/15 02:10:06;;;;;;;3.60;3.30;;;;;;;13.99;75.51;97236.84;5011018;28;20610;-68
2022/04/15 02:12:31;;;;;;;5.70;3.70;;;;;;;14.02;75.64;97243.50;5012367;28;20205;-68
2022/04/15 02:14:56;;;;;;;3.53;3.23;;;;;;;14.05;75.46;97240.38;5012269;28;20540;-68
2022/04/15 02:17:22;;;;;;;5.03;3.67;;;;;;;13.91;76.41;97246.97;5012391;28;20182;-67
2022/04/15 02:19:47;;;;;;;4.37;3.70;;;;;;;13.93;76.04;97250.19;5011907;28;20215;-68
2022/04/15 02:22:13;;;;;;;4.67;3.33;;;;;;;13.93;75.85;97247.56;5012592;28;20214;-68
2022/04/15 02:24:38;;;;;;;4.53;3.70;;;;;;;13.94;76.23;97249.94;5012006;28;20191;-68
2022/04/15 02:27:04;;;;;;;5.67;3.33;;;;;;;13.88;76.49;97250.88;5012637;28;20214;-68
2022/04/15 02:29:29;;;;;;;4.03;3.30;;;;;;;13.85;76.57;97255.81;5012240;28;20664;-67
2022/04/15 02:31:55;;;;;;;4.60;3.43;;;;;;;13.92;76.32;97251.22;5012001;28;20622;-68
2022/04/15 02:34:20;;;;;;;4.50;3.13;;;;;;;14.05;75.81;97250.91;5012438;28;20195;-67
2022/04/15 02:36:45;;;;;;;4.40;3.20;;;;;;;14.09;75.76;97254.69;5012621;28;20677;-68
2022/04/15 02:39:11;;;;;;;4.10;3.70;;;;;;;13.79;76.50;97257.56;5011678;28;20553;-67
2022/04/15 02:41:38;;;;;;;4.07;3.50;;;;;;;13.86;76.71;97257.44;5015848;28;20190;-66
2022/04/15 02:44:06;;;;;;;3.40;3.10;;;;;;;13.91;76.60;97247.78;5015952;28;20699;-67
2022/04/15 02:46:32;;;;;;;3.80;3.33;;;;;;;14.04;76.42;97250.09;5015485;28;20194;-67
2022/04/15 02:48:57;;;;;;;3.37;3.07;;;;;;;14.11;75.99;97248.13;5015596;28;20180;-67
2022/04/15 02:51:22;;;;;;;4.30;3.87;;;;;;;14.11;75.80;97255.25;5016014;28;20187;-67
2022/04/15 02:53:48;;;;;;;4.27;3.60;;;;;;;13.98;76.33;97250.28;5015430;28;20219;-68
2022/04/15 02:56:13;;;;;;;4.47;3.73;;;;;;;13.99;76.19;97250.03;5015904;28;20198;-67
2022/04/15 02:58:38;;;;;;;4.27;3.47;;;;;;;14.19;75.49;97254.06;5015651;28;20188;-67
2022/04/15 03:01:04;;;;;;;4.07;3.30;;;;;;;14.14;75.68;97254.78;5015407;28;20214;-67
2022/04/15 03:03:29;;;;;;;4.60;3.90;;;;;;;14.03;75.91;97253.00;5033961;28;20235;-67
2022/04/15 03:05:56;;;;;;;4.07;3.67;;;;;;;13.91;76.40;97246.97;5016989;28;20243;-67
2022/04/15 03:08:21;;;;;;;4.17;3.77;;;;;;;13.86;76.97;97257.44;5035016;28;20193;-67
2022/04/15 03:10:47;;;;;;;5.87;3.47;;;;;;;13.68;77.55;97253.13;5035147;28;20191;-67
2022/04/15 03:13:12;;;;;;;6.50;3.20;;;;;;;13.62;77.61;97246.97;5034991;28;20292;-67
2022/04/15 03:15:37;;;;;;;6.27;3.60;;;;;;;13.55;78.23;97254.19;5034647;28;20193;-67
2022/04/15 03:18:03;;;;;;;4.77;3.20;;;;;;;13.66;78.28;97245.47;5034220;28;20649;-68
2022/04/15 03:20:28;;;;;;;5.47;3.60;;;;;;;13.48;78.92;97247.47;5035477;28;20186;-68
2022/04/15 03:22:54;;;;;;;5.57;3.43;;;;;;;13.53;78.90;97247.56;5035036;28;20202;-68
2022/04/15 03:25:19;;;;;;;5.77;3.87;;;;;;;13.50;78.93;97242.75;5034919;28;20594;-67
2022/04/15 03:27:45;;;;;;;6.03;3.70;;;;;;;13.50;79.38;97250.66;5034783;28;20676;-67
2022/04/15 03:30:11;;;;;;;6.00;3.70;;;;;;;13.54;79.61;97249.97;5034456;28;20187;-67
2022/04/15 03:32:57;;;;;;;5.13;3.50;;;;;;;13.51;79.61;97249.63;5034433;28;20210;-67
2022/04/15 03:35:23;;;;;;;5.13;3.63;;;;;;;13.42;80.02;97246.56;5033988;28;20202;-67
2022/04/15 03:37:52;;;;;;;4.50;3.70;;;;;;;13.33;80.44;97250.59;5033723;28;20178;-67
2022/04/15 03:40:19;;;;;;;3.80;3.50;;;;;;;13.26;80.46;97252.56;5034769;28;20209;-67
2022/04/15 03:42:45;;;;;;;4.27;3.43;;;;;;;13.17;81.32;97246.84;5034254;28;20257;-67
2022/04/15 03:45:14;;;;;;;3.80;3.33;;;;;;;13.15;81.72;97251.53;5034472;28;20190;-67
2022/04/15 03:47:41;;;;;;;4.40;4.00;;;;;;;13.44;80.33;97255.03;5032459;28;20742;-67
2022/04/15 03:50:08;;;;;;;4.10;3.78;;;;;;;13.25;80.86;97249.13;5032910;28;20530;-67
2022/04/15 03:52:44;;;;;;;4.30;3.70;;;;;;;13.27;80.46;97248.88;5031769;28;20734;-67
2022/04/15 03:55:10;;;;;;;6.82;4.10;;;;;;;13.26;80.38;97255.97;5032190;28;20387;-67
2022/04/15 03:57:36;;;;;;;4.20;3.80;;;;;;;13.21;80.96;97253.25;5032478;28;20387;-67
2022/04/15 04:00:04;;;;;;;4.93;3.57;;;;;;;13.28;80.76;97253.91;5032940;28;20403;-67
2022/04/15 04:02:29;;;;;;;4.38;3.97;;;;;;;13.28;80.64;97263.66;5032466;28;20415;-67
2022/04/15 04:04:55;;;;;;;4.20;3.80;;;;;;;13.24;80.71;97260.69;5015007;28;20743;-68
2022/04/15 04:07:20;;;;;;;5.77;4.03;;;;;;;13.28;80.60;97259.19;5032797;28;20395;-66
2022/04/15 04:09:45;;;;;;;4.33;3.93;;;;;;;13.24;80.89;97263.31;5032886;28;20754;-67
2022/04/15 04:12:11;;;;;;;4.77;3.67;;;;;;;13.38;80.53;97268.31;5032282;28;20793;-66
2022/04/15 04:14:36;;;;;;;4.33;3.80;;;;;;;13.16;81.45;97268.94;5032261;28;20399;-67
2022/04/15 04:17:02;;;;;;;4.30;3.90;;;;;;;13.22;81.70;97260.09;5032388;28;20813;-68
2022/04/15 04:19:27;;;;;;;6.82;4.30;;;;;;;13.16;82.17;97276.03;5032218;28;20401;-68
2022/04/15 04:21:52;;;;;;;5.97;4.27;;;;;;;13.11;82.14;97268.78;5032785;28;20909;-68
2022/04/15 04:24:17;;;;;;;8.03;4.50;;;;;;;13.12;82.39;97267.78;5032505;28;20893;-69
2022/04/15 04:26:43;;;;;;;4.60;4.10;;;;;;;13.09;82.79;97270.88;5032300;28;20893;-68
2022/04/15 04:29:09;;;;;;;5.90;4.53;;;;;;;13.03;83.03;97276.25;5031720;28;20451;-69
2022/04/15 04:31:35;;;;;;;5.40;4.70;;;;;;;13.02;83.74;97280.72;5031906;28;20486;-68
2022/04/15 04:34:00;;;;;;;4.57;4.10;;;;;;;12.93;83.09;97278.66;5032099;28;20406;-68
2022/04/15 04:36:25;;;;;;;5.30;4.40;;;;;;;12.94;83.29;97278.41;5014501;28;20399;-68
2022/04/15 04:38:51;;;;;;;5.80;4.27;;;;;;;12.97;84.03;97287.69;5031483;28;20478;-68
2022/04/15 04:41:16;;;;;;;6.07;4.78;;;;;;;13.32;82.40;97283.22;5032296;28;20383;-68
2022/04/15 04:43:41;;;;;;;7.27;5.17;;;;;;;13.45;82.11;97288.22;5032000;28;20415;-69
2022/04/15 04:46:07;;;;;;;6.30;5.20;;;;;;;13.47;81.66;97286.19;5031642;28;20763;-68
2022/04/15 04:48:33;;;;;;;6.50;5.07;;;;;;;13.53;81.51;97285.25;5032130;28;20423;-68
2022/04/15 04:50:58;;;;;;;4.90;4.40;;;;;;;13.45;81.23;97293.50;5032086;28;20781;-68
2022/04/15 04:53:24;;;;;;;6.87;4.87;;;;;;;13.43;81.40;97292.16;5031755;28;20423;-68
2022/04/15 04:55:49;;;;;;;5.88;4.63;;;;;;;13.36;81.48;97300.16;5031790;28;20919;-68
2022/04/15 04:58:15;;;;;;;6.33;4.60;;;;;;;13.33;81.76;97288.25;5031876;28;20895;-68
2022/04/15 05:00:40;;;;;;;5.40;4.23;;;;;;;13.38;81.75;97295.44;5031822;28;20928;-68
2022/04/15 05:03:05;;;;;;;6.13;4.20;;;;;;;13.49;80.97;97302.53;5010472;28;20851;-68
2022/04/15 05:05:31;;;;;;;5.33;4.40;;;;;;;13.54;80.98;97297.38;5012150;28;20455;-68
2022/04/15 05:07:56;;;;;;;5.10;4.17;;;;;;;13.77;79.94;97307.03;5011970;28;20407;-68
2022/04/15 05:10:22;;;;;;;4.43;4.03;;;;;;;13.95;78.95;97306.06;5012530;28;20487;-68
2022/04/15 05:12:48;;;;;;;4.63;4.10;;;;;;;14.18;78.13;97313.09;5011832;28;20404;-68
2022/04/15 05:15:13;;;;;;;4.55;4.00;;;;;;;14.11;77.96;97311.41;5011730;28;20393;-68
2022/04/15 05:17:39;;;;;;;5.27;4.10;;;;;;;14.07;78.23;97314.75;5011380;28;20401;-68
2022/04/15 05:20:05;;;;;;;4.80;4.30;;;;;;;14.22;77.90;97322.94;5012191;28;20415;-68
2022/04/15 05:22:31;;;;;;;5.07;4.03;;;;;;;14.29;77.58;97323.59;5011933;28;20464;-68
2022/04/15 05:24:56;;;;;;;5.03;4.50;;;;;;;14.52;76.54;97327.97;5012156;28;20424;-68
2022/04/15 05:27:22;;;;;;;6.07;4.53;;;;;;;14.83;75.64;97330.06;5011608;28;20401;-68
2022/04/15 05:29:47;;;;;;;4.87;4.30;;;;;;;15.11;73.92;97334.47;5010968;28;20400;-69
2022/04/15 05:32:13;;;;;;;4.93;4.27;;;;;;;15.49;73.14;97338.19;5011619;28;20446;-68
2022/04/15 05:34:38;;;;;;;6.27;4.40;;;;;;;15.84;71.45;97327.28;5011628;28;20392;-68
2022/04/15 05:37:04;;;;;;;4.88;4.10;;;;;;;16.19;69.37;97328.50;5011577;28;20499;-68
2022/04/15 05:39:29;;;;;;;5.17;4.10;;;;;;;16.42;69.01;97331.91;5011225;28;20435;-68
2022/04/15 05:41:55;;;;;;;4.33;3.90;;;;;;;16.72;67.43;97332.19;5011392;28;20474;-66
2022/04/15 05:44:21;;;;;;;4.93;4.30;;;;;;;16.52;68.42;97335.44;5012306;28;20254;-66
2022/04/15 05:46:46;;;;;;;5.90;4.30;;;;;;;16.79;66.80;97342.56;5012678;28;20179;-67
2022/04/15 05:49:16;;;;;;;5.03;4.50;;;;;;;16.85;66.71;97342.38;5012801;28;20198;-67
2022/04/15 05:51:42;;;;;;;5.70;4.40;;;;;;;17.24;65.42;97340.28;5012512;28;20180;-67
2022/04/15 05:54:08;;;;;;;7.57;4.70;;;;;;;17.33;64.93;97343.25;5012656;28;20630;-67
2022/04/15 05:56:33;;;;;;;5.40;4.90;;;;;;;16.91;65.26;97348.50;5012295;28;20191;-67
2022/04/15 05:58:58;;;;;;;5.10;4.60;;;;;;;16.94;65.92;97351.44;5012183;28;20210;-67
2022/04/15 06:01:24;;;;;;;8.33;4.87;;;;;;;16.73;65.99;97354.16;5013757;28;20230;-67
2022/04/15 06:03:49;;;;;;;5.93;5.10;;;;;;;16.63;66.76;97358.31;5031847;28;20237;-66
2022/04/15 06:06:15;;;;;;;6.60;5.73;;;;;;;17.04;65.83;97359.47;5014484;28;20198;-67
2022/04/15 06:08:40;;;;;;;6.57;5.90;;;;;;;16.56;66.45;97362.19;5031932;28;20600;-68
2022/04/15 06:11:06;;;;;;;7.03;5.57;;;;;;;16.44;67.43;97358.91;5031917;28;20183;-67
2022/04/15 06:13:31;;;;;;;7.33;6.27;;;;;;;16.66;66.84;97357.03;5031985;28;20186;-66
2022/04/15 06:15:58;;;;;;;10.03;6.03;;;;;;;17.13;65.69;97359.78;5017207;28;20640;-68
2022/04/15 06:18:25;;;;;;;8.27;5.73;;;;;;;17.32;64.39;97365.50;5030906;28;20183;-68
2022/04/15 06:20:51;;;;;;;7.77;6.00;;;;;;;16.71;66.73;97364.22;5035853;28;20221;-68
2022/04/15 06:23:17;;;;;;;8.77;6.27;;;;;;;17.04;65.65;97364.78;5035784;28;20204;-68
2022/04/15 06:25:44;;;;;;;8.63;5.93;;;;;;;16.98;66.00;97365.00;5035706;28;20178;-68
2022/04/15 06:28:10;;;;;;;7.77;6.93;;;;;;;16.42;67.91;97361.00;5035593;28;20186;-70
2022/04/15 06:30:36;;;;;;;7.90;5.50;;;;;;;16.63;67.90;97362.81;5035860;28;20195;-71
2022/04/15 06:33:05;;;;;;;9.37;6.73;;;;;;;16.33;68.54;97363.28;5035936;28;20205;-70
2022/04/15 06:35:30;;;;;;;7.47;6.17;;;;;;;16.11;69.07;97363.31;5035834;28;20193;-70
2022/04/15 06:37:55;;;;;;;10.10;6.60;;;;;;;16.68;67.41;97370.81;5035509;28;20190;-67
2022/04/15 06:40:21;;;;;;;7.17;5.80;;;;;;;16.92;66.37;97371.28;5035197;28;20243;-67
2022/04/15 06:42:46;;;;;;;8.13;6.60;;;;;;;16.72;66.36;97360.53;5035310;28;20214;-67
2022/04/15 06:45:13;;;;;;;7.10;6.37;;;;;;;16.22;68.37;97364.22;5035385;28;20210;-65
2022/04/15 06:47:39;;;;;;;9.77;6.63;;;;;;;16.52;67.53;97363.75;5035528;28;20586;-67
2022/04/15 06:50:05;;;;;;;7.60;6.80;;;;;;;16.60;67.55;97366.78;5035381;28;20201;-66
2022/04/15 06:52:31;;;;;;;8.37;6.47;;;;;;;16.92;66.42;97371.28;5035185;28;20187;-67
2022/04/15 06:54:57;;;;;;;13.43;6.60;;;;;;;17.09;66.14;97369.31;5019213;28;20531;-66
2022/04/15 06:57:22;;;;;;;9.47;6.87;;;;;;;17.14;65.01;97371.19;5035278;28;20179;-67
2022/04/15 06:59:47;;;;;;;7.80;6.37;;;;;;;17.27;65.18;97368.13;5035341;28;20191;-66
2022/04/15 07:02:13;;;;;;;7.33;6.57;;;;;;;17.06;65.46;97375.09;5035162;28;20223;-66
2022/04/15 07:04:38;;;;;;;8.97;6.00;;;;;;;17.07;65.04;97373.25;5034950;28;20194;-66
2022/04/15 07:07:04;;;;;;;8.63;6.37;;;;;;;16.89;64.55;97375.22;5035277;28;20186;-67
2022/04/15 07:09:29;;;;;;;8.50;5.93;;;;;;;17.45;63.67;97371.13;5035061;28;20206;-67
2022/04/15 07:11:56;;;;;;;12.23;6.67;;;;;;;17.44;64.03;97366.88;5031944;28;20194;-77
2022/04/15 07:14:21;;;;;;;9.67;6.37;;;;;;;17.97;62.12;97364.28;5034521;28;20182;-69
2022/04/15 07:16:47;;;;;;;7.00;6.30;;;;;;;18.29;60.33;97367.56;5032469;28;20629;-68
2022/04/15 07:19:12;;;;;;;10.15;6.45;;;;;;;18.69;59.54;97373.00;5034833;28;20261;-67
2022/04/15 07:21:39;;;;;;;10.65;7.47;;;;;;;18.87;57.99;97365.59;5034413;28;20270;-67
2022/04/15 07:24:05;;;;;;;8.25;6.25;;;;;;;18.85;57.62;97370.38;5034376;28;20205;-67
2022/04/15 07:26:31;;;;;;;9.10;7.10;;;;;;;18.75;58.17;97371.16;5034270;28;20209;-67
2022/04/15 07:28:57;;;;;;;8.70;6.63;;;;;;;18.49;59.53;97374.81;5034531;28;20262;-67
2022/04/15 07:31:23;;;;;;;7.57;6.40;;;;;;;18.74;57.84;97374.06;5034171;28;20585;-67
2022/04/15 07:33:49;;;;;;;7.60;6.03;;;;;;;18.91;57.51;97379.94;5033587;28;20187;-67
2022/04/15 07:38:59;;;;;;;8.07;6.60;;;;;;;19.00;57.48;97386.34;5034058;28;20229;-67
2022/04/15 07:41:24;;;;;;;13.18;7.75;;;;;;;18.27;58.11;97381.13;5034263;28;20190;-66
2022/04/15 07:43:50;;;;;;;11.52;8.18;;;;;;;18.02;58.49;97378.38;5015894;28;20194;-67
2022/04/15 07:46:16;;;;;;;10.60;7.20;;;;;;;17.72;59.18;97383.53;5034278;28;20558;-68
2022/04/15 07:48:42;;;;;;;9.93;7.50;;;;;;;17.92;59.88;97385.47;5033428;28;20204;-67
2022/04/15 07:51:08;;;;;;;9.57;7.97;;;;;;;17.63;59.80;97387.72;5034058;28;20189;-66
2022/04/15 07:53:34;;;;;;;10.97;8.10;;;;;;;17.61;60.41;97372.06;5028339;28;20190;-66
2022/04/15 07:55:59;;;;;;;8.83;7.93;;;;;;;17.42;60.98;97381.47;5033679;28;20664;-67
2022/04/15 07:58:24;;;;;;;10.97;7.90;;;;;;;17.18;61.93;97380.22;5033843;28;20344;-68
2022/04/15 08:00:50;;;;;;;9.90;8.40;;;;;;;16.93;62.58;97383.50;5033620;28;20229;-68
2022/04/15 08:03:20;;;;;;;12.23;8.17;;;;;;;17.31;61.90;97382.44;5033194;28;20708;-68
2022/04/15 08:05:46;;;;;;;11.97;8.47;;;;;;;17.06;61.89;97385.69;5017006;28;20182;-67
2022/04/15 08:08:11;;;;;;;11.43;8.40;;;;;;;17.26;61.83;97382.41;5034024;28;20210;-73
2022/04/15 08:10:36;;;;;;;12.73;9.40;;;;;;;17.18;59.53;97382.88;5028531;28;20201;-67
2022/04/15 08:13:02;;;;;;;11.17;9.33;;;;;;;17.63;58.90;97377.13;5032871;28;20191;-67
2022/04/15 08:15:28;;;;;;;10.30;8.40;;;;;;;17.85;58.65;97380.41;5032995;28;20535;-67
2022/04/15 08:17:53;;;;;;;13.83;8.80;;;;;;;17.40;60.48;97391.50;5032740;28;20305;-68
2022/04/15 08:20:19;;;;;;;12.87;8.83;;;;;;;17.45;60.66;97389.69;5033111;28;20178;-66
2022/04/15 08:22:44;;;;;;;12.93;9.00;;;;;;;17.81;58.63;97385.44;5032199;28;20671;-67
2022/04/15 08:25:10;;;;;;;12.45;9.30;;;;;;;18.46;55.32;97386.75;5033357;28;20248;-65
2022/04/15 08:27:35;;;;;;;12.25;9.60;;;;;;;17.94;55.49;97394.00;5032910;28;20602;-66
2022/04/15 08:30:00;;;;;;;12.30;10.47;;;;;;;17.92;55.15;97394.25;5033268;28;20543;-66
2022/04/15 08:32:32;;;;;;;14.17;10.60;;;;;;;17.78;55.18;97385.13;5033358;28;20550;-68
2022/04/15 08:35:05;;;;;;;15.07;11.13;;;;;;;18.16;54.81;97389.31;5015465;28;20186;-68
2022/04/15 08:37:31;;;;;;;14.43;11.03;;;;;;;17.95;55.02;97390.25;5032176;28;20237;-68
2022/04/15 08:39:57;;;;;;;14.05;11.43;;;;;;;17.54;54.95;97397.19;5032928;28;20194;-67
2022/04/15 08:42:22;;;;;;;13.63;10.63;;;;;;;17.70;55.53;97388.28;5024697;28;20744;-67
2022/04/15 08:44:50;;;;;;;13.50;10.97;;;;;;;17.46;56.10;97393.16;5022417;28;20198;-65
2022/04/15 08:47:15;;;;;;;14.07;11.43;;;;;;;17.54;56.19;97399.84;5024269;28;20196;-65
2022/04/15 08:49:40;;;;;;;12.43;10.67;;;;;;;17.44;55.10;97392.63;5028427;28;20190;-66
2022/04/15 08:52:08;;;;;;;12.30;10.63;;;;;;;17.43;55.16;97393.66;5026230;28;20205;-65
2022/04/15 08:54:34;;;;;;;13.83;10.63;;;;;;;17.23;57.84;97398.81;5024779;28;20229;-68
2022/04/15 08:56:59;;;;;;;13.10;10.30;;;;;;;17.62;58.04;97400.16;5024303;28;20188;-69
2022/04/15 08:59:25;;;;;;;13.10;11.03;;;;;;;17.34;57.57;97403.13;5023571;28;20222;-66
2022/04/15 09:01:50;;;;;;;13.70;11.40;;;;;;;17.32;57.36;97406.06;5023527;28;20342;-68
2022/04/15 09:04:18;;;;;;;14.63;11.67;;;;;;;17.44;57.46;97411.19;5023151;28;20257;-70
2022/04/15 09:06:44;;;;;;;14.50;12.20;;;;;;;17.14;58.32;97406.44;5023855;28;20191;-69
2022/04/15 09:09:11;;;;;;;14.80;11.77;;;;;;;17.24;58.48;97413.66;5025111;28;20759;-69
2022/04/15 09:11:38;;;;;;;13.73;11.67;;;;;;;17.29;57.74;97409.19;5025000;28;21486;-68
2022/04/15 09:14:14;;;;;;;14.40;10.73;;;;;;;17.48;57.42;97406.94;5026580;28;20309;-68
2022/04/15 09:16:40;;;;;;;13.03;10.67;;;;;;;17.30;55.83;97417.94;5032253;28;20581;-69
2022/04/15 09:19:08;;;;;;;16.07;10.80;;;;;;;17.65;56.03;97404.97;5032141;28;20563;-69
2022/04/15 09:21:34;;;;;;;16.17;11.77;;;;;;;18.56;55.27;97405.38;5028060;28;20232;-68
2022/04/15 09:23:59;;;;;;;13.83;12.00;;;;;;;18.42;55.83;97398.16;5031824;28;20211;-69
2022/04/15 09:26:25;;;;;;;17.60;13.13;;;;;;;18.19;56.49;97405.50;5031972;28;20201;-69
2022/04/15 09:28:53;;;;;;;14.57;12.07;;;;;;;18.24;55.40;97413.47;5032123;28;20548;-70
2022/04/15 09:31:20;;;;;;;14.47;11.83;;;;;;;18.13;55.71;97414.50;5031061;28;20234;-69
2022/04/15 09:33:53;;;;;;;20.60;13.97;;;;;;;18.44;55.87;97406.66;5031851;28;20182;-69
2022/04/15 09:36:29;;;;;;;13.35;11.95;;;;;;;18.68;54.85;97407.78;5031712;28;20544;-69
2022/04/15 09:39:14;;;;;;;14.68;12.75;;;;;;;18.17;54.54;97407.59;5013855;28;20321;-69
2022/04/15 09:41:51;;;;;;;15.45;13.07;;;;;;;17.65;55.60;97409.47;5032487;28;20206;-69
2022/04/15 09:44:17;;;;;;;14.17;11.43;;;;;;;17.50;55.85;97414.66;5031946;28;20198;-69
2022/04/15 09:46:46;;;;;;;17.77;12.00;;;;;;;17.65;54.41;97417.44;5031855;28;20179;-69
2022/04/15 09:49:12;;;;;;;12.80;10.90;;;;;;;18.36;52.62;97404.50;5031369;28;20183;-68
2022/04/15 09:51:47;;;;;;;13.40;10.83;;;;;;;19.11;51.48;97411.84;5031390;28;20225;-69
2022/04/15 09:54:26;;;;;;;19.13;12.07;;;;;;;18.28;54.60;97411.91;5031941;28;20239;-68
2022/04/15 09:56:53;;;;;;;17.17;12.17;;;;;;;18.02;55.45;97412.84;5032122;28;20232;-69
2022/04/15 09:59:24;;;;;;;16.13;11.77;;;;;;;17.79;57.00;97407.97;5032590;28;20653;-69
2022/04/15 10:01:55;;;;;;;12.77;11.47;;;;;;;17.73;56.20;97407.13;5025713;28;20324;-71
2022/04/15 10:04:24;;;;;;;14.80;11.55;;;;;;;17.97;55.53;97412.84;5031287;28;20225;-70
2022/04/15 10:06:50;;;;;;;15.47;13.10;;;;;;;17.54;55.16;97415.75;5031346;28;20187;-70
2022/04/15 10:09:15;;;;;;;16.40;13.30;;;;;;;17.49;54.90;97408.56;5013763;28;20801;-70
2022/04/15 10:11:43;;;;;;;14.77;13.17;;;;;;;17.84;55.34;97406.13;5031984;28;20277;-69
2022/04/15 10:14:10;;;;;;;14.80;11.00;;;;;;;17.98;54.03;97400.38;5031651;28;20183;-70
2022/04/15 10:16:38;;;;;;;14.50;10.50;;;;;;;18.27;54.27;97409.53;5031876;28;20356;-70
2022/04/15 10:19:05;;;;;;;13.13;11.67;;;;;;;17.88;55.22;97408.28;5013767;28;20185;-69
2022/04/15 10:21:49;;;;;;;12.18;10.93;;;;;;;18.16;54.96;97403.38;5031245;28;20574;-70
2022/04/15 10:24:16;;;;;;;11.63;9.53;;;;;;;19.09;51.31;97408.66;5031499;28;20655;-68
2022/04/15 10:26:44;;;;;;;12.77;10.37;;;;;;;18.89;53.11;97400.69;5032102;28;20186;-68
2022/04/15 10:29:10;;;;;;;13.82;10.60;;;;;;;18.40;53.51;97401.06;5031696;28;20193;-67
2022/04/15 10:31:56;;;;;;;12.45;10.68;;;;;;;18.11;53.81;97406.00;5030736;28;20264;-69
2022/04/15 10:34:22;;;;;;;10.50;9.35;;;;;;;18.57;53.39;97396.34;5030785;28;20229;-68
2022/04/15 10:36:50;;;;;;;11.63;9.95;;;;;;;18.78;52.29;97393.75;5031156;28;20183;-68
2022/04/15 10:39:26;;;;;;;12.68;11.25;;;;;;;18.79;52.58;97384.69;5030453;28;20229;-69
2022/04/15 10:41:56;;;;;;;11.90;10.70;;;;;;;18.73;52.04;97394.53;5013978;28;20197;-69
2022/04/15 10:44:39;;;;;;;10.88;9.65;;;;;;;18.32;51.88;97398.13;5031443;28;20195;-69
2022/04/15 10:47:16;;;;;;;11.38;9.43;;;;;;;18.37;51.90;97390.16;5030535;28;20183;-70
2022/04/15 10:50:12;;;;;;;9.70;8.70;;;;;;;19.07;50.41;97394.81;5018616;28;20216;-69
2022/04/15 10:52:39;;;;;;;11.50;9.35;;;;;;;18.83;51.55;97391.91;5012099;28;20190;-69
2022/04/15 10:55:10;;;;;;;9.80;8.40;;;;;;;18.95;51.03;97391.63;5031082;28;20179;-69
2022/04/15 10:57:37;;;;;;;9.18;7.45;;;;;;;18.82;49.61;97390.31;5023588;28;20576;-69
2022/04/15 11:02:58;;;;;;;9.90;8.60;;;;;;;18.17;50.63;97396.19;5035046;28;20283;-68
2022/04/15 11:05:42;;;;;;;9.40;8.40;;;;;;;18.18;50.62;97395.13;5035232;28;20261;-68
2022/04/15 11:08:12;;;;;;;8.50;7.53;;;;;;;18.82;48.21;97390.31;5032316;28;20277;-70
2022/04/15 11:11:07;;;;;;;7.78;6.95;;;;;;;18.46;49.69;97401.88;5033628;28;20246;-69
2022/04/15 11:13:39;;;;;;;9.75;8.45;;;;;;;17.96;50.81;97399.81;5034177;28;20656;-69
2022/04/15 11:16:10;;;;;;;9.03;8.00;;;;;;;17.96;51.52;97407.78;5032051;28;20182;-68
2022/04/15 11:18:52;;;;;;;12.47;7.70;;;;;;;17.94;50.35;97401.94;5015225;28;20625;-69
2022/04/15 11:21:36;;;;;;;11.38;8.45;;;;;;;18.00;50.68;97403.56;5034316;28;20241;-69
2022/04/15 11:24:08;;;;;;;11.67;10.17;;;;;;;17.74;51.91;97408.72;5033847;28;20289;-69
2022/04/15 11:26:36;;;;;;;12.77;9.33;;;;;;;17.83;51.49;97393.91;5034017;28;20190;-69
2022/04/15 11:29:03;;;;;;;9.63;6.77;;;;;;;18.47;49.00;97391.00;5034248;28;20183;-69
2022/04/15 11:31:29;;;;;;;8.40;6.50;;;;;;;18.96;47.77;97391.38;5016021;28;20210;-69
2022/04/15 11:34:02;;;;;;;8.23;6.37;;;;;;;19.24;47.09;97383.91;5033382;28;20608;-69